createdAt,value
2022-12-18T00:02:09.762Z,28.85
2022-12-18T00:04:36.588Z,25.40
2022-12-18T00:07:03.957Z,26.38
2022-12-18T00:09:31.298Z,30.23
2022-12-18T00:14:43.023Z,23.95
2022-12-18T00:17:10.131Z,26.27
2022-12-18T00:19:37.016Z,28.30
2022-12-18T00:22:03.857Z,27.13
2022-12-18T00:24:30.767Z,25.20
2022-12-18T00:26:57.623Z,23.90
2022-12-18T00:29:24.396Z,21.92
2022-12-18T00:31:51.303Z,21.02
2022-12-18T00:34:18.126Z,25.55
2022-12-18T00:36:45.043Z,28.80
2022-12-18T00:39:12.787Z,24.50
2022-12-18T00:41:58.348Z,25.85
2022-12-18T00:44:25.182Z,21.58
2022-12-18T00:46:52.010Z,28.67
2022-12-18T00:49:19.918Z,28.52
2022-12-18T00:51:47.556Z,26.95
2022-12-18T00:54:14.352Z,21.85
2022-12-18T00:56:48.333Z,25.50
2022-12-18T00:59:16.612Z,25.08
2022-12-18T01:01:43.810Z,25.63
2022-12-18T01:04:10.824Z,26.05
2022-12-18T01:06:37.712Z,21.95
2022-12-18T01:09:04.592Z,24.67
2022-12-18T01:11:31.817Z,23.25
2022-12-18T01:13:58.701Z,23.90
2022-12-18T01:16:25.560Z,23.58
2022-12-18T01:18:53.511Z,25.90
2022-12-18T01:21:21.037Z,19.10
2022-12-18T01:23:48.036Z,20.85
2022-12-18T01:26:16.207Z,20.77
2022-12-18T01:28:44.800Z,23.25
2022-12-18T01:31:16.135Z,27.35
2022-12-18T01:33:43.081Z,21.75
2022-12-18T01:36:15.387Z,16.15
2022-12-18T01:38:42.155Z,20.05
2022-12-18T01:41:09.326Z,21.20
2022-12-18T01:43:48.974Z,21.25
2022-12-18T01:46:16.008Z,17.27
2022-12-18T01:48:43.523Z,21.65
2022-12-18T01:51:11.571Z,19.10
2022-12-18T01:53:40.275Z,22.20
2022-12-18T01:56:07.486Z,23.10
2022-12-18T01:58:48.752Z,25.13
2022-12-18T02:01:15.662Z,24.70
2022-12-18T02:03:43.909Z,22.00
2022-12-18T02:06:20.036Z,22.08
2022-12-18T02:08:52.263Z,19.48
2022-12-18T02:11:19.097Z,24.05
2022-12-18T02:13:56.632Z,23.83
2022-12-18T02:16:26.786Z,21.88
2022-12-18T02:18:57.043Z,18.42
2022-12-18T02:21:35.181Z,21.83
2022-12-18T02:24:01.959Z,27.15
2022-12-18T02:26:33.754Z,22.65
2022-12-18T02:29:06.807Z,22.45
2022-12-18T02:31:37.852Z,22.63
2022-12-18T02:34:06.765Z,24.45
2022-12-18T02:36:34.674Z,23.60
2022-12-18T02:39:02.494Z,22.80
2022-12-18T02:41:29.679Z,22.33
2022-12-18T02:43:58.611Z,18.60
2022-12-18T02:46:31.671Z,19.55
2022-12-18T02:49:02.666Z,19.95
2022-12-18T02:51:37.638Z,24.65
2022-12-18T02:54:09.851Z,22.48
2022-12-18T02:56:39.460Z,25.13
2022-12-18T02:59:13.472Z,19.17
2022-12-18T03:01:51.848Z,22.17
2022-12-18T03:04:27.377Z,20.30
2022-12-18T03:06:56.520Z,24.75
2022-12-18T03:09:27.774Z,19.77
2022-12-18T03:12:15.790Z,21.55
2022-12-18T03:14:43.086Z,23.00
2022-12-18T03:17:14.619Z,21.95
2022-12-18T03:19:43.200Z,17.30
2022-12-18T03:22:10.805Z,23.23
2022-12-18T03:24:40.077Z,20.55
2022-12-18T03:27:10.374Z,25.00
2022-12-18T03:29:39.280Z,22.95
2022-12-18T03:32:09.191Z,20.73
2022-12-18T03:34:38.521Z,24.60
2022-12-18T03:37:06.286Z,23.63
2022-12-18T03:39:33.600Z,28.20
2022-12-18T03:42:20.644Z,32.95
2022-12-18T03:44:50.539Z,26.30
2022-12-18T03:47:34.629Z,24.33
2022-12-18T03:50:12.795Z,23.92
2022-12-18T03:52:45.518Z,26.33
2022-12-18T03:55:12.725Z,28.75
2022-12-18T03:57:39.977Z,26.90
2022-12-18T04:00:11.722Z,26.77
2022-12-18T04:02:40.204Z,21.85
2022-12-18T04:05:08.283Z,23.45
2022-12-18T04:07:35.748Z,26.23
2022-12-18T04:10:04.353Z,24.20
2022-12-18T04:12:31.288Z,20.35
2022-12-18T04:14:58.144Z,25.45
2022-12-18T04:17:25.180Z,27.85
2022-12-18T04:19:51.946Z,22.98
2022-12-18T04:22:18.900Z,23.20
2022-12-18T04:24:45.709Z,24.50
2022-12-18T04:27:12.519Z,20.95
2022-12-18T04:29:39.370Z,22.52
2022-12-18T04:32:06.246Z,21.40
2022-12-18T04:34:33.137Z,27.33
2022-12-18T04:37:00.021Z,21.27
2022-12-18T04:39:26.865Z,21.23
2022-12-18T04:41:53.638Z,21.27
2022-12-18T04:44:20.396Z,22.95
2022-12-18T04:46:47.255Z,20.73
2022-12-18T04:49:14.192Z,16.83
2022-12-18T04:51:41.100Z,20.10
2022-12-18T04:54:07.898Z,21.95
2022-12-18T04:56:34.657Z,16.27
2022-12-18T04:59:01.469Z,14.77
2022-12-18T05:01:34.080Z,14.73
2022-12-18T05:04:01.898Z,20.23
2022-12-18T05:06:28.752Z,13.88
2022-12-18T05:08:55.681Z,15.77
2022-12-18T05:11:22.884Z,17.45
2022-12-18T05:13:49.673Z,13.55
2022-12-18T05:16:16.532Z,14.48
2022-12-18T05:18:43.661Z,14.00
2022-12-18T05:21:10.552Z,15.30
2022-12-18T05:23:37.758Z,16.25
2022-12-18T05:26:05.963Z,17.77
2022-12-18T05:28:33.213Z,13.70
2022-12-18T05:31:01.004Z,16.08
2022-12-18T05:33:29.804Z,14.38
2022-12-18T05:35:57.690Z,14.38
2022-12-18T05:38:25.164Z,15.55
2022-12-18T05:40:52.246Z,16.10
2022-12-18T05:43:21.450Z,13.88
2022-12-18T05:45:48.957Z,14.60
2022-12-18T05:48:16.311Z,15.65
2022-12-18T05:50:46.494Z,14.80
2022-12-18T05:53:14.177Z,16.48
2022-12-18T05:55:41.713Z,16.50
2022-12-18T05:58:10.019Z,12.23
2022-12-18T06:00:40.875Z,13.90
2022-12-18T06:03:08.703Z,17.15
2022-12-18T06:05:36.694Z,17.15
2022-12-18T06:08:03.561Z,15.07
2022-12-18T06:10:30.340Z,13.50
2022-12-18T06:12:57.116Z,13.80
2022-12-18T06:15:23.881Z,14.45
2022-12-18T06:17:50.706Z,17.55
2022-12-18T06:20:17.556Z,13.98
2022-12-18T06:22:45.072Z,14.77
2022-12-18T06:25:11.894Z,14.20
2022-12-18T06:27:38.794Z,14.80
2022-12-18T06:30:06.078Z,17.02
2022-12-18T06:32:32.926Z,15.68
2022-12-18T06:34:59.693Z,15.50
2022-12-18T06:37:27.189Z,15.90
2022-12-18T06:39:54.713Z,13.80
2022-12-18T06:42:21.463Z,15.40
2022-12-18T06:44:48.265Z,17.08
2022-12-18T06:47:15.103Z,21.40
2022-12-18T06:49:41.844Z,17.13
2022-12-18T06:52:08.635Z,17.38
2022-12-18T06:54:35.561Z,18.17
2022-12-18T06:57:02.392Z,18.10
2022-12-18T06:59:29.145Z,17.95
2022-12-18T07:01:56.641Z,20.77
2022-12-18T07:04:23.552Z,17.73
2022-12-18T07:06:50.397Z,15.80
2022-12-18T07:09:17.201Z,13.90
2022-12-18T07:11:43.968Z,13.25
2022-12-18T07:14:10.855Z,17.40
2022-12-18T07:16:37.668Z,16.52
2022-12-18T07:19:04.593Z,13.77
2022-12-18T07:21:31.425Z,15.52
2022-12-18T07:23:58.295Z,14.38
2022-12-18T07:26:25.171Z,16.08
2022-12-18T07:28:55.483Z,14.68
2022-12-18T07:31:22.873Z,11.07
2022-12-18T07:33:50.667Z,14.30
2022-12-18T07:36:17.500Z,13.35
2022-12-18T07:38:44.293Z,15.80
2022-12-18T07:41:12.249Z,14.73
2022-12-18T07:43:39.704Z,16.40
2022-12-18T07:46:07.450Z,14.32
2022-12-18T07:48:34.735Z,14.10
2022-12-18T07:51:02.494Z,13.23
2022-12-18T07:53:29.651Z,12.68
2022-12-18T07:56:25.627Z,13.02
2022-12-18T07:58:45.445Z,12.20
2022-12-18T08:01:12.784Z,14.80
2022-12-18T08:03:40.565Z,14.57
2022-12-18T08:06:10.460Z,13.00
2022-12-18T08:08:37.924Z,13.00
2022-12-18T08:11:04.841Z,14.35
2022-12-18T08:13:31.647Z,14.02
2022-12-18T08:16:05.858Z,11.02
2022-12-18T08:18:36.841Z,11.65
2022-12-18T08:21:21.342Z,13.55
2022-12-18T08:23:49.135Z,13.23
2022-12-18T08:26:16.833Z,14.65
2022-12-18T08:28:43.857Z,12.50
2022-12-18T08:31:11.171Z,13.15
2022-12-18T08:33:39.413Z,11.25
2022-12-18T08:36:06.792Z,17.75
2022-12-18T08:38:34.341Z,10.80
2022-12-18T08:41:08.433Z,12.70
2022-12-18T08:43:54.070Z,13.95
2022-12-18T08:46:21.704Z,10.48
2022-12-18T08:48:49.488Z,15.52
2022-12-18T08:51:17.329Z,12.38
2022-12-18T08:53:45.366Z,14.75
2022-12-18T08:56:12.262Z,13.35
2022-12-18T08:58:39.065Z,16.00
2022-12-18T09:01:07.064Z,14.23
2022-12-18T09:03:34.073Z,14.10
2022-12-18T09:06:00.890Z,13.85
2022-12-18T09:08:27.998Z,16.45
2022-12-18T09:10:54.767Z,12.90
2022-12-18T09:13:22.129Z,13.43
2022-12-18T09:15:50.548Z,14.90
2022-12-18T09:18:18.693Z,12.80
2022-12-18T09:20:46.145Z,15.50
2022-12-18T09:23:13.065Z,14.98
2022-12-18T09:25:40.027Z,15.50
2022-12-18T09:28:10.922Z,17.38
2022-12-18T09:30:41.823Z,15.52
2022-12-18T09:33:08.817Z,15.25
2022-12-18T09:35:40.055Z,11.60
2022-12-18T09:38:07.253Z,12.68
2022-12-18T09:40:36.940Z,15.77
2022-12-18T09:43:05.713Z,17.75
2022-12-18T09:45:46.573Z,16.67
2022-12-18T09:48:19.895Z,14.10
2022-12-18T09:50:47.524Z,15.25
2022-12-18T09:53:20.034Z,13.98
2022-12-18T09:55:47.644Z,14.98
2022-12-18T09:58:17.916Z,14.70
2022-12-18T10:00:44.747Z,15.43
2022-12-18T10:03:13.894Z,14.65
2022-12-18T10:05:51.003Z,15.35
2022-12-18T10:08:17.734Z,13.68
2022-12-18T10:10:49.680Z,15.90
2022-12-18T10:13:40.662Z,13.45
2022-12-18T10:16:30.935Z,16.33
2022-12-18T10:19:00.887Z,18.20
2022-12-18T10:21:40.267Z,16.65
2022-12-18T10:24:29.969Z,16.90
2022-12-18T10:27:00.229Z,15.32
2022-12-18T10:29:27.174Z,14.95
2022-12-18T10:31:53.934Z,16.58
2022-12-18T10:34:20.730Z,19.23
2022-12-18T10:36:48.649Z,17.23
2022-12-18T10:39:19.893Z,19.92
2022-12-18T10:41:47.303Z,17.42
2022-12-18T10:44:14.083Z,14.75
2022-12-18T10:46:41.715Z,16.17
2022-12-18T10:49:19.495Z,16.55
2022-12-18T10:51:46.312Z,16.63
2022-12-18T10:54:18.104Z,17.38
2022-12-18T10:59:13.129Z,15.48
2022-12-18T11:02:06.487Z,17.38
2022-12-18T11:04:33.417Z,20.95
2022-12-18T11:07:07.885Z,16.20
2022-12-18T11:09:35.924Z,18.67
2022-12-18T11:12:04.654Z,19.13
2022-12-18T11:14:46.771Z,21.48
2022-12-18T11:17:27.459Z,19.38
2022-12-18T11:19:55.405Z,16.80
2022-12-18T11:22:24.564Z,20.17
2022-12-18T11:25:30.712Z,17.75
2022-12-18T11:27:50.431Z,18.45
2022-12-18T11:30:30.988Z,20.48
2022-12-18T11:33:00.871Z,17.38
2022-12-18T11:35:37.402Z,21.60
2022-12-18T11:38:07.719Z,20.63
2022-12-18T11:40:40.707Z,21.17
2022-12-18T11:43:11.302Z,22.08
2022-12-18T11:45:54.427Z,22.23
2022-12-18T11:48:27.932Z,20.05
2022-12-18T11:50:59.461Z,18.48
2022-12-18T11:53:27.129Z,19.27
2022-12-18T11:56:18.475Z,19.77
2022-12-18T11:58:48.420Z,24.63
2022-12-18T12:01:43.979Z,22.92
2022-12-18T12:04:11.552Z,19.38
2022-12-18T12:06:46.429Z,27.02
2022-12-18T12:09:30.918Z,24.80
2022-12-18T12:14:33.626Z,31.67
2022-12-18T12:17:19.106Z,38.78
2022-12-18T12:19:45.983Z,34.70
2022-12-18T12:22:24.949Z,33.03
2022-12-18T12:25:21.254Z,27.10
2022-12-18T12:27:56.994Z,24.40
2022-12-18T12:30:31.721Z,23.30
2022-12-18T12:32:58.578Z,21.90
2022-12-18T12:35:31.667Z,21.48
2022-12-18T12:38:04.307Z,27.27
2022-12-18T12:43:23.111Z,23.35
2022-12-18T12:46:16.740Z,22.02
2022-12-18T12:48:56.036Z,19.25
2022-12-18T12:51:24.950Z,20.63
2022-12-18T12:53:52.974Z,18.27
2022-12-18T12:56:21.050Z,19.90
2022-12-18T12:58:53.268Z,21.52
2022-12-18T13:01:36.021Z,20.50
2022-12-18T13:04:02.924Z,22.83
2022-12-18T13:06:44.420Z,21.00
2022-12-18T13:09:11.606Z,15.82
2022-12-18T13:12:02.312Z,16.80
2022-12-18T13:14:39.845Z,13.88
2022-12-18T13:17:28.933Z,15.45
2022-12-18T13:20:10.009Z,17.60
2022-12-18T13:22:39.025Z,15.80
2022-12-18T13:25:45.009Z,14.32
2022-12-18T13:28:13.731Z,12.43
2022-12-18T13:30:41.163Z,12.98
2022-12-18T13:33:34.252Z,15.27
2022-12-18T13:36:13.269Z,12.93
2022-12-18T13:38:40.849Z,11.80
2022-12-18T13:41:19.760Z,11.88
2022-12-18T13:43:47.667Z,11.55
2022-12-18T13:46:25.741Z,10.50
2022-12-18T13:49:05.611Z,9.93
2022-12-18T13:51:34.891Z,11.43
2022-12-18T13:54:03.857Z,11.48
2022-12-18T13:56:34.486Z,10.93
2022-12-18T13:59:13.371Z,12.95
2022-12-18T14:01:46.367Z,9.90
2022-12-18T14:04:19.056Z,10.07
2022-12-18T14:06:46.731Z,10.65
2022-12-18T14:09:26.248Z,10.43
2022-12-18T14:12:14.648Z,11.95
2022-12-18T14:14:48.226Z,11.90
2022-12-18T14:17:16.483Z,9.75
2022-12-18T14:19:45.941Z,8.95
2022-12-18T14:22:17.597Z,10.80
2022-12-18T14:24:44.338Z,10.30
2022-12-18T14:27:29.183Z,9.40
2022-12-18T14:29:55.953Z,9.77
2022-12-18T14:32:23.523Z,8.57
2022-12-18T14:34:51.881Z,11.45
2022-12-18T14:37:22.552Z,9.77
2022-12-18T14:40:02.182Z,9.73
2022-12-18T14:42:31.593Z,9.98
2022-12-18T14:45:17.144Z,7.60
2022-12-18T14:47:44.429Z,8.68
2022-12-18T14:50:15.121Z,8.15
2022-12-18T14:52:42.043Z,7.80
2022-12-18T14:55:15.882Z,8.85
2022-12-18T14:57:45.488Z,8.73
2022-12-18T15:00:22.756Z,8.98
2022-12-18T15:02:51.679Z,8.13
2022-12-18T15:05:18.558Z,7.45
2022-12-18T15:07:46.530Z,9.95
2022-12-18T15:10:15.681Z,6.88
2022-12-18T15:13:11.909Z,8.35
2022-12-18T15:15:38.927Z,8.77
2022-12-18T15:18:08.680Z,8.60
2022-12-18T15:20:45.801Z,7.50
2022-12-18T15:23:15.684Z,8.63
2022-12-18T15:25:42.577Z,6.97
2022-12-18T15:28:26.879Z,9.95
2022-12-18T15:33:25.831Z,8.52
2022-12-18T15:35:59.820Z,7.28
2022-12-18T15:38:27.106Z,7.57
2022-12-18T15:40:56.607Z,5.28
2022-12-18T15:43:36.350Z,7.03
2022-12-18T15:46:03.245Z,5.45
2022-12-18T15:48:30.536Z,6.63
2022-12-18T15:50:58.321Z,5.35
2022-12-18T15:53:30.208Z,5.22
2022-12-18T15:56:23.290Z,5.95
2022-12-18T15:58:51.139Z,4.82
2022-12-18T16:01:18.104Z,6.28
2022-12-18T16:03:46.564Z,4.90
2022-12-18T16:06:13.388Z,5.18
2022-12-18T16:08:40.171Z,5.78
2022-12-18T16:11:21.073Z,4.50
2022-12-18T16:13:47.897Z,6.13
2022-12-18T16:16:14.746Z,4.38
2022-12-18T16:18:41.810Z,4.15
2022-12-18T16:21:09.044Z,4.10
2022-12-18T16:23:36.055Z,4.35
2022-12-18T16:26:03.640Z,3.95
2022-12-18T16:28:30.401Z,4.10
2022-12-18T16:30:57.425Z,4.28
2022-12-18T16:33:24.665Z,4.57
2022-12-18T16:35:54.554Z,4.68
2022-12-18T16:38:21.389Z,4.28
2022-12-18T16:41:06.962Z,5.80
2022-12-18T16:43:33.725Z,5.05
2022-12-18T16:46:00.611Z,4.50
2022-12-18T16:48:27.479Z,4.88
2022-12-18T16:51:02.630Z,5.63
2022-12-18T16:53:30.103Z,5.15
2022-12-18T16:55:57.276Z,6.50
2022-12-18T16:58:24.122Z,5.60
2022-12-18T17:00:50.916Z,6.18
2022-12-18T17:03:17.856Z,6.38
2022-12-18T17:05:48.742Z,5.43
2022-12-18T17:08:18.422Z,6.32
2022-12-18T17:10:45.213Z,6.85
2022-12-18T17:13:11.990Z,5.90
2022-12-18T17:15:38.872Z,6.40
2022-12-18T17:18:05.703Z,4.55
2022-12-18T17:20:32.483Z,4.60
2022-12-18T17:22:59.286Z,5.35
2022-12-18T17:25:27.771Z,5.13
2022-12-18T17:27:54.546Z,5.82
2022-12-18T17:30:21.327Z,7.75
2022-12-18T17:32:48.154Z,6.35
2022-12-18T17:35:14.991Z,5.07
2022-12-18T17:37:42.151Z,6.60
2022-12-18T17:40:09.240Z,7.20
2022-12-18T17:42:36.023Z,6.85
2022-12-18T17:45:02.866Z,6.07
2022-12-18T17:47:29.609Z,5.47
2022-12-18T17:49:56.402Z,6.75
2022-12-18T17:52:24.264Z,7.47
2022-12-18T17:54:52.809Z,6.30
2022-12-18T17:57:19.633Z,5.72
2022-12-18T17:59:46.407Z,6.82
2022-12-18T18:02:13.264Z,6.97
2022-12-18T18:04:40.884Z,6.22
2022-12-18T18:07:07.748Z,6.80
2022-12-18T18:09:34.603Z,5.65
2022-12-18T18:12:19.986Z,7.13
2022-12-18T18:14:47.111Z,8.52
2022-12-18T18:17:13.900Z,7.32
2022-12-18T18:19:42.125Z,7.10
2022-12-18T18:22:10.851Z,7.63
2022-12-18T18:24:37.770Z,6.65
2022-12-18T18:27:04.567Z,6.03
2022-12-18T18:29:31.515Z,6.28
2022-12-18T18:31:59.100Z,7.68
2022-12-18T18:34:30.352Z,7.07
2022-12-18T18:36:58.613Z,8.50
2022-12-18T18:39:25.772Z,6.55
2022-12-18T18:41:52.602Z,6.25
2022-12-18T18:44:25.687Z,6.15
2022-12-18T18:46:54.199Z,9.02
2022-12-18T18:49:21.030Z,6.82
2022-12-18T18:51:50.078Z,5.68
2022-12-18T18:54:16.881Z,5.53
2022-12-18T18:59:31.737Z,7.95
2022-12-18T19:02:00.045Z,10.82
2022-12-18T19:04:31.900Z,6.32
2022-12-18T19:06:58.698Z,6.80
2022-12-18T19:09:26.278Z,8.05
